Time;durP1;ratioP1;P1;durP2;ratioP2;P2;SDS_P1;SDS_P2;PMS_P1;PMS_P2;Temp;Humidity;BMP_temperature;BMP_pressure;BME280_temperature;BME280_humidity;BME280_pressure;Samples;Min_cycle;Max_cycle;Signal;HPM_P1;HPM_P2
2021/05/11 00:02:10;;;;;;;1.52;0.52;;;12.50;62.20;;;;;;20930732;28;20056;-66
2021/05/11 00:12:11;;;;;;;0.80;0.40;;;12.70;61.80;;;;;;20926709;28;20052;-61
2021/05/11 00:22:13;;;;;;;0.82;0.38;;;12.70;61.40;;;;;;20926044;28;20053;-61
2021/05/11 00:32:14;;;;;;;0.93;0.60;;;12.70;60.10;;;;;;20924528;28;20067;-66
2021/05/11 00:42:15;;;;;;;0.85;0.50;;;12.50;58.20;;;;;;20923878;28;20053;-66
2021/05/11 00:52:17;;;;;;;1.45;0.40;;;12.60;56.60;;;;;;20923279;28;20045;-61
2021/05/11 01:02:19;;;;;;;1.15;0.50;;;12.40;56.20;;;;;;20922126;28;20045;-66
2021/05/11 01:12:21;;;;;;;0.93;0.40;;;12.40;55.90;;;;;;20922345;28;20088;-65
2021/05/11 01:22:48;;;;;;;1.50;0.60;;;12.60;55.70;;;;;;20919448;28;20459;-65
2021/05/11 02:24:23;;;;;;;1.83;0.80;;;12.30;52.60;;;;;;20916307;28;20045;-66
2021/05/11 02:34:24;;;;;;;1.95;0.73;;;12.10;52.50;;;;;;20915316;28;20413;-62
2021/05/11 02:44:25;;;;;;;3.88;1.20;;;12.10;52.10;;;;;;20914915;28;20134;-61
2021/05/11 02:54:26;;;;;;;3.33;0.85;;;12.00;50.90;;;;;;20912317;28;20040;-61
2021/05/11 03:04:28;;;;;;;2.17;0.63;;;12.10;50.50;;;;;;20913375;28;20049;-66
2021/05/11 03:14:33;;;;;;;2.97;0.80;;;12.10;50.40;;;;;;20912685;28;20524;-66
2021/05/11 03:24:35;;;;;;;;;;;12.10;50.40;;;;;;20913569;28;20465;-66
2021/05/11 03:34:38;;;;;;;2.55;0.70;;;12.00;50.30;;;;;;20911642;28;19925;-65
2021/05/11 03:44:41;;;;;;;2.53;0.80;;;12.00;51.40;;;;;;20911560;28;20426;-65
2021/05/11 03:54:42;;;;;;;2.03;0.65;;;11.80;52.20;;;;;;20909774;28;20056;-61
2021/05/11 04:04:43;;;;;;;1.90;0.82;;;11.70;53.40;;;;;;20910087;28;20060;-60
2021/05/11 04:25:05;;;;;;;3.33;0.90;;;11.60;58.90;;;;;;20910740;28;20071;-61
2021/05/11 04:35:07;;;;;;;3.03;1.10;;;11.50;58.90;;;;;;20910353;28;20075;-64
2021/05/11 04:45:09;;;;;;;2.90;1.00;;;11.60;59.70;;;;;;20923638;28;20164;-65
2021/05/11 04:55:12;;;;;;;2.17;0.93;;;11.40;61.30;;;;;;20923555;28;20128;-64
2021/05/11 05:05:15;;;;;;;4.63;1.08;;;11.30;61.50;;;;;;20921730;28;20139;-65
2021/05/11 05:15:16;;;;;;;3.28;0.80;;;11.40;60.80;;;;;;20921925;28;20492;-64
2021/05/11 05:25:25;;;;;;;1.90;1.05;;;11.20;61.00;;;;;;20920018;28;20061;-61
2021/05/11 05:35:27;;;;;;;1.90;1.10;;;11.40;60.60;;;;;;20918863;28;20056;-65
2021/05/11 05:45:28;;;;;;;59.13;6.85;;;11.30;60.30;;;;;;20918760;28;20091;-66
2021/05/11 05:55:30;;;;;;;3.45;1.00;;;11.30;57.10;;;;;;20918152;28;20172;-67
2021/05/11 06:05:32;;;;;;;2.20;0.98;;;11.50;54.10;;;;;;20916853;28;20057;-66
2021/05/11 06:25:55;;;;;;;4.25;1.10;;;11.80;50.50;;;;;;20916133;28;20057;-66
2021/05/11 06:35:56;;;;;;;3.42;1.10;;;11.90;48.90;;;;;;20916304;28;20045;-62
2021/05/11 06:56:06;;;;;;;5.00;1.15;;;13.30;46.80;;;;;;20913502;28;20144;-67
2021/05/11 07:06:08;;;;;;;4.10;1.02;;;14.00;43.90;;;;;;20911339;28;20091;-62
2021/05/11 07:16:09;;;;;;;2.13;0.85;;;14.70;42.00;;;;;;20913005;28;20049;-65
2021/05/11 07:36:14;;;;;;;2.97;0.90;;;15.70;40.00;;;;;;20911514;28;20044;-65
2021/05/11 08:16:57;;;;;;;3.47;0.73;;;18.40;35.20;;;;;;20921829;28;20508;-64
2021/05/11 08:37:20;;;;;;;5.53;0.73;;;17.70;35.70;;;;;;20924779;28;20087;-66
2021/05/11 08:47:21;;;;;;;2.03;0.70;;;18.30;36.00;;;;;;20923786;28;20076;-66
2021/05/11 09:28:03;;;;;;;3.13;0.88;;;19.50;33.90;;;;;;20920472;28;20102;-66
2021/05/11 09:59:35;;;;;;;2.20;0.80;;;19.70;34.20;;;;;;20834136;28;20049;-63
2021/05/11 10:50:48;;;;;;;27.25;9.88;;;19.20;32.60;;;;;;20831232;28;20076;-56
2021/05/11 11:00:58;;;;;;;8.35;4.25;;;19.30;32.20;;;;;;20830248;28;20052;-59
2021/05/11 11:11:20;;;;;;;3.05;1.30;;;18.80;32.90;;;;;;20829908;28;20148;-57
2021/05/11 11:21:35;;;;;;;6.57;2.70;;;19.00;31.40;;;;;;20910318;28;20083;-65
2021/05/11 11:31:44;;;;;;;2.95;0.75;;;19.40;32.90;;;;;;20911548;28;20057;-69
2021/05/11 11:41:47;;;;;;;5.18;1.40;;;19.50;31.80;;;;;;20883392;28;20049;-64
2021/05/11 11:52:01;;;;;;;1.70;0.90;;;19.40;31.80;;;;;;20904838;28;20045;-62
2021/05/11 12:02:04;;;;;;;1.35;0.60;;;19.60;31.20;;;;;;20911360;28;20081;-60
2021/05/11 12:12:06;;;;;;;3.97;0.70;;;19.20;30.60;;;;;;20928646;28;20049;-60
2021/05/11 12:22:07;;;;;;;5.38;0.70;;;19.20;29.80;;;;;;20926015;28;20144;-63
2021/05/11 12:32:21;;;;;;;3.80;1.13;;;19.10;29.30;;;;;;20923544;28;20504;-63
2021/05/11 12:42:24;;;;;;;3.80;1.75;;;19.20;29.00;;;;;;20910881;28;20081;-62
2021/05/11 12:52:29;;;;;;;2.03;0.77;;;19.00;29.60;;;;;;20862081;28;20466;-64
2021/05/11 13:03:03;;;;;;;3.25;0.95;;;19.30;29.70;;;;;;20839045;28;20088;-63
2021/05/11 13:43:46;;;;;;;1.90;0.57;;;19.70;29.50;;;;;;20837216;28;20046;-65
2021/05/11 13:53:54;;;;;;;1.63;0.80;;;19.60;29.90;;;;;;20835874;28;20556;-65
2021/05/11 14:03:56;;;;;;;2.42;0.80;;;19.70;28.80;;;;;;20835082;28;20501;-66
2021/05/11 14:13:58;;;;;;;2.60;0.70;;;19.80;29.10;;;;;;20834249;28;20406;-67
2021/05/11 14:23:59;;;;;;;1.92;0.70;;;19.80;29.30;;;;;;20832247;28;20060;-65
2021/05/11 14:34:01;;;;;;;3.72;0.85;;;19.90;29.60;;;;;;20833336;28;20498;-64
2021/05/11 14:44:04;;;;;;;2.17;0.80;;;20.10;28.50;;;;;;20832808;28;20103;-66
2021/05/11 14:54:05;;;;;;;2.65;0.88;;;20.20;28.40;;;;;;20831836;28;20512;-68
2021/05/11 15:04:07;;;;;;;3.50;0.95;;;20.20;29.50;;;;;;20831829;28;20057;-67
2021/05/11 15:14:08;;;;;;;1.10;0.60;;;20.20;29.00;;;;;;20831855;28;20493;-60
2021/05/11 15:24:10;;;;;;;2.30;0.85;;;20.10;31.40;;;;;;20837562;28;20493;-59
2021/05/11 15:34:11;;;;;;;2.10;0.70;;;20.30;31.10;;;;;;20843468;28;20068;-59
2021/05/11 15:44:13;;;;;;;1.75;0.73;;;20.30;31.90;;;;;;20845813;28;20049;-60
2021/05/11 15:54:14;;;;;;;1.95;0.98;;;21.20;29.70;;;;;;20908800;28;20610;-64
2021/05/11 16:04:15;;;;;;;5.30;1.00;;;20.50;31.90;;;;;;20908507;28;20493;-65
2021/05/11 16:14:16;;;;;;;7.72;3.83;;;20.60;32.30;;;;;;20908933;28;20099;-61
2021/05/11 16:24:17;;;;;;;8.48;5.15;;;20.60;31.10;;;;;;20906699;28;20238;-60
2021/05/11 16:34:20;;;;;;;9.43;2.90;;;20.60;31.90;;;;;;20912372;28;20135;-60
2021/05/11 16:44:22;;;;;;;3.27;1.40;;;20.70;32.90;;;;;;20922967;28;20162;-65
2021/05/11 16:54:23;;;;;;;5.82;1.05;;;20.50;32.70;;;;;;20884689;28;20045;-59
2021/05/11 17:04:25;;;;;;;6.65;1.10;;;20.70;32.80;;;;;;20837332;28;20521;-62
2021/05/11 17:14:26;;;;;;;2.78;1.10;;;20.60;32.20;;;;;;20837965;28;20052;-62
2021/05/11 17:24:27;;;;;;;4.75;1.58;;;20.60;32.30;;;;;;20836206;28;20057;-64
2021/05/11 17:34:28;;;;;;;7.63;1.73;;;20.50;33.10;;;;;;20868506;28;20106;-65
2021/05/11 17:44:30;;;;;;;1.85;0.70;;;20.30;34.60;;;;;;20901367;28;20406;-66
2021/05/11 17:54:32;;;;;;;3.92;1.10;;;20.20;32.90;;;;;;20909560;28;20052;-64
2021/05/11 18:04:33;;;;;;;9.45;2.05;;;20.10;33.30;;;;;;20896218;28;20421;-63
2021/05/11 18:14:34;;;;;;;7.75;3.65;;;20.00;35.20;;;;;;20850724;28;20124;-61
2021/05/11 18:24:36;;;;;;;2.65;1.00;;;20.10;35.30;;;;;;20894395;28;20080;-61
2021/05/11 18:34:39;;;;;;;27.67;2.88;;;20.00;34.90;;;;;;20876810;28;20096;-60
2021/05/11 18:44:40;;;;;;;22.45;3.40;;;19.90;36.00;;;;;;20830809;28;20088;-58
2021/05/11 18:54:46;;;;;;;9.40;2.78;;;19.70;36.80;;;;;;20828078;28;20056;-58
2021/05/11 19:04:47;;;;;;;7.53;1.73;;;19.60;37.40;;;;;;20830052;28;20148;-58
2021/05/11 19:14:50;;;;;;;3.00;1.17;;;19.50;37.30;;;;;;20829718;28;20049;-65
2021/05/11 19:24:52;;;;;;;10.43;1.65;;;19.00;37.30;;;;;;20828690;28;20438;-66
2021/05/11 19:34:53;;;;;;;3.97;1.40;;;18.60;38.20;;;;;;20832018;28;20129;-64
2021/05/11 19:44:58;;;;;;;6.80;1.77;;;18.70;39.60;;;;;;20830306;28;20049;-60
2021/05/11 19:55:03;;;;;;;4.03;1.60;;;18.90;39.00;;;;;;20831818;28;20050;-62
2021/05/11 20:05:05;;;;;;;3.28;1.63;;;18.30;38.30;;;;;;20829540;28;20049;-61
2021/05/11 20:15:07;;;;;;;4.25;1.30;;;18.00;38.70;;;;;;20844969;28;20482;-63
2021/05/11 20:25:10;;;;;;;7.28;1.77;;;17.70;38.90;;;;;;20843318;28;20080;-62
2021/05/11 20:35:16;;;;;;;4.82;1.73;;;18.40;37.50;;;;;;20843535;28;20065;-62
2021/05/11 20:45:18;;;;;;;2.15;1.30;;;18.20;38.10;;;;;;20851981;28;20057;-61
2021/05/11 20:55:19;;;;;;;3.85;1.35;;;18.00;37.60;;;;;;20866719;28;20052;-63
2021/05/11 21:05:21;;;;;;;4.00;1.50;;;17.20;39.40;;;;;;20853268;28;20482;-62
2021/05/11 21:15:22;;;;;;;4.20;1.20;;;16.70;40.70;;;;;;20840282;28;20040;-62
2021/05/11 21:25:24;;;;;;;4.97;1.90;;;16.70;41.00;;;;;;20838631;28;20502;-63
2021/05/11 21:35:25;;;;;;;18.35;10.85;;;16.50;41.30;;;;;;20838987;28;20418;-62
2021/05/11 21:45:26;;;;;;;5.25;2.13;;;16.50;41.40;;;;;;20836085;28;20060;-62
2021/05/11 21:55:27;;;;;;;2.78;1.42;;;16.40;41.80;;;;;;20836950;28;20111;-62
2021/05/11 22:05:29;;;;;;;4.38;1.63;;;16.30;41.90;;;;;;20835671;28;20128;-61
2021/05/11 22:15:31;;;;;;;3.53;1.17;;;16.20;42.20;;;;;;20835365;28;20073;-63
2021/05/11 22:25:34;;;;;;;5.53;1.25;;;16.20;42.50;;;;;;20834053;28;20060;-62
2021/05/11 22:35:36;;;;;;;5.10;1.43;;;16.20;42.70;;;;;;20848131;28;20057;-62
2021/05/11 22:45:37;;;;;;;3.60;1.67;;;16.10;43.10;;;;;;20832961;28;20112;-62
2021/05/11 22:55:38;;;;;;;4.93;1.48;;;16.10;44.10;;;;;;20832750;28;20135;-62
2021/05/11 23:05:40;;;;;;;3.80;1.02;;;16.10;44.00;;;;;;20832512;28;20046;-62
2021/05/11 23:15:44;;;;;;;4.53;1.25;;;16.10;44.50;;;;;;20831770;28;20077;-62
2021/05/11 23:25:46;;;;;;;3.57;1.13;;;16.10;44.60;;;;;;20829122;28;20501;-62
2021/05/11 23:35:47;;;;;;;4.15;1.30;;;16.00;44.90;;;;;;20831175;28;20061;-62
2021/05/11 23:45:48;;;;;;;4.97;1.15;;;16.00;44.80;;;;;;20848184;28;20504;-62
2021/05/11 23:55:50;;;;;;;4.40;1.20;;;15.90;45.10;;;;;;20857223;28;20409;-62
